Flight Number: EUR2401 Duration: 1:45
Departure: Munich Int'l (EDDM) at 08:30 Distance: 670 Nm
Arrival: Thessaloniki Makedonia (LGTS) at 10:15 Equipment: B737

Weather Information
Munchen, Germany (EDDM) 48-21N 011-47E Dec 17, 2017 - 04:20 AM EST / 2017.12.17 0920 UTC
Wind: from the W (260 degrees) at 12 MPH (10 KT) (direction variable):0
Visibility: 2 mile(s):0
Sky conditions: mostly cloudy Weather: light snow showers; Towering cumulus clouds observed Temperature: 33 F (1 C)
Windchill: 24 F (-4 C):1 Dew Point: 30 F (-1 C) Relative Humidity: 86% Pressure (altimeter): 30.15 in. Hg (1021 hPa)
ob: EDDM 170920Z 26010KT 240V300 3500 -SHSN FEW010TCU SCT027 BKN042 01/M01 Q1021 R88/290095 TEMPO 2500 SHSN BKN012TCU cycle: 9
Sunrise: 07:03 Sunset: 15:14 (UTC)

Thessaloniki Airport , Greece (LGTS) 40-31N 022-58E 4M Dec 17, 2017 - 04:20 AM EST / 2017.12.17 0920 UTC
Wind: from the NW (320 degrees) at 14 MPH (12 KT):0
Visibility: greater than 7 mile(s):0
Sky conditions: mostly cloudy Temperature: 53 F (12 C) Dew Point: 42 F (6 C) Relative Humidity: 66% Pressure (altimeter): 29.74 in. Hg (1007 hPa)
ob: LGTS 170920Z 32012KT 9999 FEW010 SCT020 BKN030 12/06 Q1007 NOSIG cycle: 9
Sunrise: 05:49 Sunset: 14:59 (UTC)

TAF:2017/12/17 06:12 TAF LGTS 170500Z 1706/1806 VRB03KT 9999 SCT030 PROB40 TEMPO 1706/1715 7000 RA FEW010 BKN025 BECMG 1706/1708 34015KT

Previous Pireps for this route
Date Aircraft Flight time Fuel used Landing rate On time
2015-08-13B73702.0510849-69Yes
(pireps marked green are flown by you)

Route map